sensor_id;sensor_type;location;lat;lon;timestamp;P1;durP1;ratioP1;P2;durP2;ratioP2
69779;SDS011;57052;55.602;38.096;2023-12-20T00:01:36;4.90;;;2.22;;
69779;SDS011;57052;55.602;38.096;2023-12-20T00:04:02;5.70;;;2.60;;
69779;SDS011;57052;55.602;38.096;2023-12-20T00:06:29;5.10;;;2.58;;
69779;SDS011;57052;55.602;38.096;2023-12-20T00:08:55;4.13;;;1.95;;
69779;SDS011;57052;55.602;38.096;2023-12-20T00:11:21;4.63;;;2.25;;
69779;SDS011;57052;55.602;38.096;2023-12-20T00:13:46;3.25;;;1.70;;
69779;SDS011;57052;55.602;38.096;2023-12-20T00:16:12;4.35;;;2.08;;
69779;SDS011;57052;55.602;38.096;2023-12-20T00:18:38;4.10;;;1.92;;
69779;SDS011;57052;55.602;38.096;2023-12-20T00:21:04;4.75;;;2.08;;
69779;SDS011;57052;55.602;38.096;2023-12-20T00:23:30;4.57;;;1.60;;
69779;SDS011;57052;55.602;38.096;2023-12-20T00:25:55;4.75;;;1.70;;
69779;SDS011;57052;55.602;38.096;2023-12-20T00:28:21;3.05;;;1.67;;
69779;SDS011;57052;55.602;38.096;2023-12-20T00:30:48;3.60;;;1.60;;
69779;SDS011;57052;55.602;38.096;2023-12-20T00:33:13;4.68;;;1.73;;
69779;SDS011;57052;55.602;38.096;2023-12-20T00:35:39;4.20;;;1.90;;
69779;SDS011;57052;55.602;38.096;2023-12-20T00:38:05;4.63;;;1.80;;
69779;SDS011;57052;55.602;38.096;2023-12-20T00:40:32;3.85;;;1.90;;
69779;SDS011;57052;55.602;38.096;2023-12-20T00:42:58;4.80;;;1.80;;
69779;SDS011;57052;55.602;38.096;2023-12-20T00:45:24;2.95;;;1.75;;
69779;SDS011;57052;55.602;38.096;2023-12-20T00:47:50;5.32;;;1.70;;
69779;SDS011;57052;55.602;38.096;2023-12-20T00:50:15;5.72;;;1.80;;
69779;SDS011;57052;55.602;38.096;2023-12-20T00:52:41;3.28;;;1.70;;
69779;SDS011;57052;55.602;38.096;2023-12-20T00:55:07;3.78;;;1.70;;
69779;SDS011;57052;55.602;38.096;2023-12-20T00:57:33;4.07;;;1.65;;
69779;SDS011;57052;55.602;38.096;2023-12-20T00:59:59;3.40;;;1.80;;
69779;SDS011;57052;55.602;38.096;2023-12-20T01:02:25;3.30;;;1.73;;
69779;SDS011;57052;55.602;38.096;2023-12-20T01:04:50;5.20;;;1.60;;
69779;SDS011;57052;55.602;38.096;2023-12-20T01:07:16;3.72;;;1.75;;
69779;SDS011;57052;55.602;38.096;2023-12-20T01:09:42;6.22;;;2.17;;
69779;SDS011;57052;55.602;38.096;2023-12-20T01:12:07;3.80;;;1.90;;
69779;SDS011;57052;55.602;38.096;2023-12-20T01:14:33;3.95;;;1.80;;
69779;SDS011;57052;55.602;38.096;2023-12-20T01:16:59;4.60;;;1.83;;
69779;SDS011;57052;55.602;38.096;2023-12-20T01:19:25;3.75;;;1.90;;
69779;SDS011;57052;55.602;38.096;2023-12-20T01:21:52;3.75;;;2.10;;
69779;SDS011;57052;55.602;38.096;2023-12-20T01:24:17;3.40;;;1.88;;
69779;SDS011;57052;55.602;38.096;2023-12-20T01:26:43;4.60;;;2.03;;
69779;SDS011;57052;55.602;38.096;2023-12-20T01:29:09;3.60;;;1.70;;
69779;SDS011;57052;55.602;38.096;2023-12-20T01:31:34;3.47;;;1.80;;
69779;SDS011;57052;55.602;38.096;2023-12-20T01:34:00;3.33;;;1.70;;
69779;SDS011;57052;55.602;38.096;2023-12-20T01:36:26;3.60;;;1.65;;
69779;SDS011;57052;55.602;38.096;2023-12-20T01:38:52;3.10;;;1.70;;
69779;SDS011;57052;55.602;38.096;2023-12-20T01:41:17;3.63;;;1.85;;
69779;SDS011;57052;55.602;38.096;2023-12-20T01:43:43;3.28;;;1.67;;
69779;SDS011;57052;55.602;38.096;2023-12-20T01:46:09;3.30;;;1.70;;
69779;SDS011;57052;55.602;38.096;2023-12-20T01:48:35;4.03;;;2.55;;
69779;SDS011;57052;55.602;38.096;2023-12-20T01:51:01;3.80;;;1.90;;
69779;SDS011;57052;55.602;38.096;2023-12-20T01:53:27;4.18;;;2.00;;
69779;SDS011;57052;55.602;38.096;2023-12-20T01:55:55;5.00;;;2.13;;
69779;SDS011;57052;55.602;38.096;2023-12-20T01:58:23;5.45;;;2.45;;
69779;SDS011;57052;55.602;38.096;2023-12-20T02:00:50;4.72;;;2.08;;
69779;SDS011;57052;55.602;38.096;2023-12-20T02:03:16;5.78;;;2.00;;
69779;SDS011;57052;55.602;38.096;2023-12-20T02:05:43;3.92;;;1.98;;
69779;SDS011;57052;55.602;38.096;2023-12-20T02:08:11;4.07;;;1.98;;
69779;SDS011;57052;55.602;38.096;2023-12-20T02:10:36;3.80;;;1.73;;
69779;SDS011;57052;55.602;38.096;2023-12-20T02:13:03;4.63;;;2.00;;
69779;SDS011;57052;55.602;38.096;2023-12-20T02:15:29;6.25;;;2.22;;
69779;SDS011;57052;55.602;38.096;2023-12-20T02:17:55;3.83;;;1.95;;
69779;SDS011;57052;55.602;38.096;2023-12-20T02:20:41;4.47;;;2.08;;
69779;SDS011;57052;55.602;38.096;2023-12-20T02:23:07;4.60;;;2.13;;
69779;SDS011;57052;55.602;38.096;2023-12-20T02:25:33;3.85;;;2.00;;
69779;SDS011;57052;55.602;38.096;2023-12-20T02:27:58;5.95;;;1.90;;
69779;SDS011;57052;55.602;38.096;2023-12-20T02:30:24;4.53;;;1.90;;
69779;SDS011;57052;55.602;38.096;2023-12-20T02:32:50;3.90;;;1.75;;
69779;SDS011;57052;55.602;38.096;2023-12-20T02:35:17;4.47;;;1.30;;
69779;SDS011;57052;55.602;38.096;2023-12-20T02:37:43;3.28;;;1.08;;
69779;SDS011;57052;55.602;38.096;2023-12-20T02:40:09;7.10;;;1.50;;
69779;SDS011;57052;55.602;38.096;2023-12-20T02:42:35;2.95;;;1.00;;
69779;SDS011;57052;55.602;38.096;2023-12-20T02:45:01;1.73;;;1.08;;
69779;SDS011;57052;55.602;38.096;2023-12-20T02:47:30;3.47;;;1.20;;
69779;SDS011;57052;55.602;38.096;2023-12-20T02:49:56;2.13;;;0.90;;
69779;SDS011;57052;55.602;38.096;2023-12-20T02:52:25;1.50;;;0.85;;
69779;SDS011;57052;55.602;38.096;2023-12-20T02:54:52;3.25;;;1.20;;
69779;SDS011;57052;55.602;38.096;2023-12-20T02:57:18;2.75;;;1.25;;
69779;SDS011;57052;55.602;38.096;2023-12-20T02:59:44;3.53;;;1.48;;
69779;SDS011;57052;55.602;38.096;2023-12-20T03:02:09;5.07;;;1.67;;
69779;SDS011;57052;55.602;38.096;2023-12-20T03:04:35;4.00;;;1.58;;
69779;SDS011;57052;55.602;38.096;2023-12-20T03:07:01;6.90;;;1.67;;
69779;SDS011;57052;55.602;38.096;2023-12-20T03:09:26;4.40;;;1.77;;
69779;SDS011;57052;55.602;38.096;2023-12-20T03:11:52;3.33;;;1.60;;
69779;SDS011;57052;55.602;38.096;2023-12-20T03:14:18;4.07;;;1.80;;
69779;SDS011;57052;55.602;38.096;2023-12-20T03:16:49;3.97;;;1.77;;
69779;SDS011;57052;55.602;38.096;2023-12-20T03:19:16;3.55;;;1.73;;
69779;SDS011;57052;55.602;38.096;2023-12-20T03:21:42;3.47;;;1.50;;
69779;SDS011;57052;55.602;38.096;2023-12-20T03:24:08;3.40;;;1.50;;
69779;SDS011;57052;55.602;38.096;2023-12-20T03:26:33;2.72;;;1.63;;
69779;SDS011;57052;55.602;38.096;2023-12-20T03:28:59;4.47;;;1.65;;
69779;SDS011;57052;55.602;38.096;2023-12-20T03:31:25;3.53;;;1.65;;
69779;SDS011;57052;55.602;38.096;2023-12-20T03:33:51;2.55;;;1.38;;
69779;SDS011;57052;55.602;38.096;2023-12-20T03:36:19;4.82;;;1.77;;
69779;SDS011;57052;55.602;38.096;2023-12-20T03:38:45;5.68;;;1.50;;
69779;SDS011;57052;55.602;38.096;2023-12-20T03:41:11;6.28;;;2.85;;
69779;SDS011;57052;55.602;38.096;2023-12-20T03:43:36;4.13;;;1.90;;
69779;SDS011;57052;55.602;38.096;2023-12-20T03:46:02;3.55;;;1.75;;
69779;SDS011;57052;55.602;38.096;2023-12-20T03:48:29;3.85;;;1.88;;
69779;SDS011;57052;55.602;38.096;2023-12-20T03:50:58;3.78;;;2.00;;
69779;SDS011;57052;55.602;38.096;2023-12-20T03:53:24;3.97;;;2.20;;
69779;SDS011;57052;55.602;38.096;2023-12-20T03:55:49;5.15;;;2.00;;
69779;SDS011;57052;55.602;38.096;2023-12-20T03:58:15;4.38;;;2.05;;
69779;SDS011;57052;55.602;38.096;2023-12-20T04:00:41;4.63;;;2.30;;
69779;SDS011;57052;55.602;38.096;2023-12-20T04:03:06;5.78;;;2.45;;
69779;SDS011;57052;55.602;38.096;2023-12-20T04:05:32;5.03;;;2.28;;
69779;SDS011;57052;55.602;38.096;2023-12-20T04:07:59;3.70;;;2.03;;
69779;SDS011;57052;55.602;38.096;2023-12-20T04:10:26;4.25;;;1.98;;
69779;SDS011;57052;55.602;38.096;2023-12-20T04:12:53;4.75;;;2.50;;
69779;SDS011;57052;55.602;38.096;2023-12-20T04:15:20;3.47;;;1.77;;
69779;SDS011;57052;55.602;38.096;2023-12-20T04:17:46;4.95;;;2.20;;
69779;SDS011;57052;55.602;38.096;2023-12-20T04:20:12;5.60;;;2.20;;
69779;SDS011;57052;55.602;38.096;2023-12-20T04:22:37;3.78;;;2.25;;
69779;SDS011;57052;55.602;38.096;2023-12-20T04:25:03;5.75;;;2.28;;
69779;SDS011;57052;55.602;38.096;2023-12-20T04:27:30;7.40;;;3.60;;
69779;SDS011;57052;55.602;38.096;2023-12-20T04:29:56;5.38;;;2.15;;
69779;SDS011;57052;55.602;38.096;2023-12-20T04:32:22;5.05;;;2.30;;
69779;SDS011;57052;55.602;38.096;2023-12-20T04:34:47;6.70;;;2.55;;
69779;SDS011;57052;55.602;38.096;2023-12-20T04:37:13;4.90;;;2.38;;
69779;SDS011;57052;55.602;38.096;2023-12-20T04:39:39;4.38;;;2.08;;
69779;SDS011;57052;55.602;38.096;2023-12-20T04:42:06;3.85;;;2.08;;
69779;SDS011;57052;55.602;38.096;2023-12-20T04:44:32;6.28;;;2.50;;
69779;SDS011;57052;55.602;38.096;2023-12-20T04:46:58;5.00;;;2.28;;
69779;SDS011;57052;55.602;38.096;2023-12-20T04:49:23;4.80;;;2.10;;
69779;SDS011;57052;55.602;38.096;2023-12-20T04:51:50;4.72;;;2.15;;
69779;SDS011;57052;55.602;38.096;2023-12-20T04:54:15;3.97;;;2.13;;
69779;SDS011;57052;55.602;38.096;2023-12-20T04:56:41;4.93;;;2.20;;
69779;SDS011;57052;55.602;38.096;2023-12-20T04:59:07;4.78;;;2.15;;
69779;SDS011;57052;55.602;38.096;2023-12-20T05:01:33;4.82;;;2.20;;
69779;SDS011;57052;55.602;38.096;2023-12-20T05:03:58;5.72;;;2.30;;
69779;SDS011;57052;55.602;38.096;2023-12-20T05:06:24;4.10;;;2.10;;
69779;SDS011;57052;55.602;38.096;2023-12-20T05:08:50;5.55;;;2.35;;
69779;SDS011;57052;55.602;38.096;2023-12-20T05:11:16;12.85;;;3.55;;
69779;SDS011;57052;55.602;38.096;2023-12-20T05:13:42;5.07;;;2.88;;
69779;SDS011;57052;55.602;38.096;2023-12-20T05:16:08;6.15;;;2.65;;
69779;SDS011;57052;55.602;38.096;2023-12-20T05:18:34;3.65;;;2.08;;
69779;SDS011;57052;55.602;38.096;2023-12-20T05:21:00;5.30;;;2.22;;
69779;SDS011;57052;55.602;38.096;2023-12-20T05:23:26;5.43;;;2.00;;
69779;SDS011;57052;55.602;38.096;2023-12-20T05:25:51;3.65;;;2.10;;
69779;SDS011;57052;55.602;38.096;2023-12-20T05:28:17;3.92;;;2.17;;
69779;SDS011;57052;55.602;38.096;2023-12-20T05:30:43;4.53;;;2.00;;
69779;SDS011;57052;55.602;38.096;2023-12-20T05:33:08;3.40;;;1.70;;
69779;SDS011;57052;55.602;38.096;2023-12-20T05:35:34;6.35;;;2.22;;
69779;SDS011;57052;55.602;38.096;2023-12-20T05:38:00;3.08;;;1.55;;
69779;SDS011;57052;55.602;38.096;2023-12-20T05:40:26;5.55;;;2.70;;
69779;SDS011;57052;55.602;38.096;2023-12-20T05:42:51;6.20;;;2.30;;
69779;SDS011;57052;55.602;38.096;2023-12-20T05:45:17;4.22;;;2.40;;
69779;SDS011;57052;55.602;38.096;2023-12-20T05:47:43;6.55;;;3.03;;
69779;SDS011;57052;55.602;38.096;2023-12-20T05:50:08;5.22;;;2.65;;
69779;SDS011;57052;55.602;38.096;2023-12-20T05:52:34;7.10;;;2.90;;
69779;SDS011;57052;55.602;38.096;2023-12-20T05:55:00;6.72;;;2.92;;
69779;SDS011;57052;55.602;38.096;2023-12-20T05:57:32;5.25;;;2.60;;
69779;SDS011;57052;55.602;38.096;2023-12-20T05:59:58;5.00;;;2.50;;
69779;SDS011;57052;55.602;38.096;2023-12-20T06:02:24;7.22;;;2.90;;
69779;SDS011;57052;55.602;38.096;2023-12-20T06:04:49;6.25;;;3.08;;
69779;SDS011;57052;55.602;38.096;2023-12-20T06:07:16;6.97;;;3.15;;
69779;SDS011;57052;55.602;38.096;2023-12-20T06:09:42;6.22;;;2.60;;
69779;SDS011;57052;55.602;38.096;2023-12-20T06:12:08;6.70;;;2.75;;
69779;SDS011;57052;55.602;38.096;2023-12-20T06:14:34;4.80;;;2.72;;
69779;SDS011;57052;55.602;38.096;2023-12-20T06:17:00;5.20;;;2.45;;
69779;SDS011;57052;55.602;38.096;2023-12-20T06:19:28;5.82;;;2.35;;
69779;SDS011;57052;55.602;38.096;2023-12-20T06:21:54;5.07;;;2.25;;
69779;SDS011;57052;55.602;38.096;2023-12-20T06:24:20;6.78;;;2.40;;
69779;SDS011;57052;55.602;38.096;2023-12-20T06:26:47;3.88;;;2.22;;
69779;SDS011;57052;55.602;38.096;2023-12-20T06:29:13;6.22;;;2.55;;
69779;SDS011;57052;55.602;38.096;2023-12-20T06:31:38;5.32;;;2.40;;
69779;SDS011;57052;55.602;38.096;2023-12-20T06:34:04;4.13;;;2.30;;
69779;SDS011;57052;55.602;38.096;2023-12-20T06:36:30;4.25;;;1.98;;
69779;SDS011;57052;55.602;38.096;2023-12-20T06:38:55;5.82;;;2.20;;
69779;SDS011;57052;55.602;38.096;2023-12-20T06:41:21;5.93;;;2.58;;
69779;SDS011;57052;55.602;38.096;2023-12-20T06:43:51;4.72;;;2.45;;
69779;SDS011;57052;55.602;38.096;2023-12-20T06:46:18;4.57;;;2.58;;
69779;SDS011;57052;55.602;38.096;2023-12-20T06:48:44;5.72;;;2.33;;
69779;SDS011;57052;55.602;38.096;2023-12-20T06:51:14;6.82;;;2.85;;
69779;SDS011;57052;55.602;38.096;2023-12-20T06:53:41;6.72;;;2.78;;
69779;SDS011;57052;55.602;38.096;2023-12-20T06:56:06;4.78;;;2.55;;
69779;SDS011;57052;55.602;38.096;2023-12-20T06:58:32;6.93;;;2.78;;
69779;SDS011;57052;55.602;38.096;2023-12-20T07:00:58;5.13;;;2.88;;
69779;SDS011;57052;55.602;38.096;2023-12-20T07:03:24;6.22;;;2.97;;
69779;SDS011;57052;55.602;38.096;2023-12-20T07:05:49;6.95;;;3.00;;
69779;SDS011;57052;55.602;38.096;2023-12-20T07:08:15;5.80;;;3.03;;
69779;SDS011;57052;55.602;38.096;2023-12-20T07:10:41;5.95;;;2.80;;
69779;SDS011;57052;55.602;38.096;2023-12-20T07:13:07;8.18;;;3.10;;
69779;SDS011;57052;55.602;38.096;2023-12-20T07:15:33;5.65;;;2.47;;
69779;SDS011;57052;55.602;38.096;2023-12-20T07:17:59;4.63;;;2.50;;
69779;SDS011;57052;55.602;38.096;2023-12-20T07:20:25;6.03;;;2.47;;
69779;SDS011;57052;55.602;38.096;2023-12-20T07:22:51;6.22;;;3.10;;
69779;SDS011;57052;55.602;38.096;2023-12-20T07:25:17;6.47;;;2.72;;
69779;SDS011;57052;55.602;38.096;2023-12-20T07:27:43;5.32;;;2.67;;
69779;SDS011;57052;55.602;38.096;2023-12-20T07:30:09;5.72;;;2.80;;
69779;SDS011;57052;55.602;38.096;2023-12-20T07:32:36;6.32;;;2.80;;
69779;SDS011;57052;55.602;38.096;2023-12-20T07:35:01;6.63;;;2.60;;
69779;SDS011;57052;55.602;38.096;2023-12-20T07:37:29;4.63;;;2.53;;
69779;SDS011;57052;55.602;38.096;2023-12-20T07:39:55;4.72;;;2.20;;
69779;SDS011;57052;55.602;38.096;2023-12-20T07:42:20;3.97;;;2.08;;
69779;SDS011;57052;55.602;38.096;2023-12-20T07:44:47;4.60;;;2.10;;
69779;SDS011;57052;55.602;38.096;2023-12-20T07:47:13;4.05;;;2.03;;
69779;SDS011;57052;55.602;38.096;2023-12-20T07:49:42;4.60;;;2.00;;
69779;SDS011;57052;55.602;38.096;2023-12-20T07:52:08;4.53;;;1.92;;
69779;SDS011;57052;55.602;38.096;2023-12-20T07:54:34;4.80;;;2.33;;
69779;SDS011;57052;55.602;38.096;2023-12-20T07:56:59;4.10;;;2.13;;
69779;SDS011;57052;55.602;38.096;2023-12-20T07:59:25;4.45;;;1.88;;
69779;SDS011;57052;55.602;38.096;2023-12-20T08:01:51;3.95;;;1.98;;
69779;SDS011;57052;55.602;38.096;2023-12-20T08:04:16;4.30;;;2.22;;
69779;SDS011;57052;55.602;38.096;2023-12-20T08:06:42;4.43;;;2.10;;
69779;SDS011;57052;55.602;38.096;2023-12-20T08:09:08;6.22;;;2.10;;
69779;SDS011;57052;55.602;38.096;2023-12-20T08:11:33;4.75;;;2.00;;
69779;SDS011;57052;55.602;38.096;2023-12-20T08:13:59;4.70;;;1.85;;
69779;SDS011;57052;55.602;38.096;2023-12-20T08:16:25;2.53;;;1.50;;
69779;SDS011;57052;55.602;38.096;2023-12-20T08:18:51;3.35;;;1.70;;
69779;SDS011;57052;55.602;38.096;2023-12-20T08:21:17;3.50;;;1.83;;
69779;SDS011;57052;55.602;38.096;2023-12-20T08:23:45;4.25;;;1.98;;
69779;SDS011;57052;55.602;38.096;2023-12-20T08:26:12;4.70;;;2.47;;
69779;SDS011;57052;55.602;38.096;2023-12-20T08:28:38;5.55;;;2.00;;
69779;SDS011;57052;55.602;38.096;2023-12-20T08:31:04;4.45;;;2.38;;
69779;SDS011;57052;55.602;38.096;2023-12-20T08:33:30;5.50;;;2.08;;
69779;SDS011;57052;55.602;38.096;2023-12-20T08:35:55;4.15;;;2.13;;
69779;SDS011;57052;55.602;38.096;2023-12-20T08:38:21;7.07;;;2.35;;
69779;SDS011;57052;55.602;38.096;2023-12-20T08:40:47;5.63;;;2.10;;
69779;SDS011;57052;55.602;38.096;2023-12-20T08:43:13;3.67;;;2.00;;
69779;SDS011;57052;55.602;38.096;2023-12-20T08:45:39;10.05;;;2.67;;
69779;SDS011;57052;55.602;38.096;2023-12-20T08:48:05;3.83;;;2.00;;
69779;SDS011;57052;55.602;38.096;2023-12-20T08:50:31;4.18;;;2.10;;
69779;SDS011;57052;55.602;38.096;2023-12-20T08:52:57;3.33;;;1.90;;
69779;SDS011;57052;55.602;38.096;2023-12-20T08:55:23;4.32;;;1.98;;
69779;SDS011;57052;55.602;38.096;2023-12-20T08:57:48;4.40;;;2.08;;
69779;SDS011;57052;55.602;38.096;2023-12-20T09:00:16;4.85;;;2.10;;
69779;SDS011;57052;55.602;38.096;2023-12-20T09:02:41;4.30;;;2.28;;
69779;SDS011;57052;55.602;38.096;2023-12-20T09:05:07;3.75;;;1.88;;
69779;SDS011;57052;55.602;38.096;2023-12-20T09:07:33;3.70;;;1.95;;
69779;SDS011;57052;55.602;38.096;2023-12-20T09:09:59;4.10;;;2.13;;
69779;SDS011;57052;55.602;38.096;2023-12-20T09:12:25;8.25;;;2.72;;
69779;SDS011;57052;55.602;38.096;2023-12-20T09:14:53;4.30;;;2.30;;
69779;SDS011;57052;55.602;38.096;2023-12-20T09:17:19;5.30;;;2.40;;
69779;SDS011;57052;55.602;38.096;2023-12-20T09:19:46;4.82;;;2.50;;
69779;SDS011;57052;55.602;38.096;2023-12-20T09:22:14;9.35;;;3.13;;
69779;SDS011;57052;55.602;38.096;2023-12-20T09:24:39;5.60;;;2.97;;
69779;SDS011;57052;55.602;38.096;2023-12-20T09:27:05;4.75;;;2.50;;
69779;SDS011;57052;55.602;38.096;2023-12-20T09:29:31;4.90;;;2.47;;
69779;SDS011;57052;55.602;38.096;2023-12-20T09:31:57;4.72;;;2.70;;
69779;SDS011;57052;55.602;38.096;2023-12-20T09:34:23;4.30;;;2.40;;
69779;SDS011;57052;55.602;38.096;2023-12-20T09:36:49;4.63;;;2.40;;
69779;SDS011;57052;55.602;38.096;2023-12-20T09:39:16;3.80;;;1.88;;
69779;SDS011;57052;55.602;38.096;2023-12-20T09:41:49;5.80;;;2.63;;
69779;SDS011;57052;55.602;38.096;2023-12-20T09:44:25;6.03;;;2.50;;
69779;SDS011;57052;55.602;38.096;2023-12-20T09:46:51;4.32;;;2.40;;
69779;SDS011;57052;55.602;38.096;2023-12-20T09:49:20;6.10;;;3.05;;
69779;SDS011;57052;55.602;38.096;2023-12-20T09:51:47;5.53;;;2.45;;
69779;SDS011;57052;55.602;38.096;2023-12-20T09:54:16;6.28;;;2.78;;
69779;SDS011;57052;55.602;38.096;2023-12-20T09:56:46;5.32;;;2.05;;
69779;SDS011;57052;55.602;38.096;2023-12-20T09:59:13;4.90;;;2.30;;
69779;SDS011;57052;55.602;38.096;2023-12-20T10:01:39;5.70;;;2.05;;
69779;SDS011;57052;55.602;38.096;2023-12-20T10:04:07;4.43;;;2.25;;
69779;SDS011;57052;55.602;38.096;2023-12-20T10:06:37;4.75;;;2.30;;
69779;SDS011;57052;55.602;38.096;2023-12-20T10:09:06;3.85;;;2.22;;
69779;SDS011;57052;55.602;38.096;2023-12-20T10:11:34;4.43;;;2.00;;
69779;SDS011;57052;55.602;38.096;2023-12-20T10:14:00;3.88;;;2.20;;
69779;SDS011;57052;55.602;38.096;2023-12-20T10:16:27;3.50;;;2.00;;
69779;SDS011;57052;55.602;38.096;2023-12-20T10:18:56;5.00;;;2.50;;
69779;SDS011;57052;55.602;38.096;2023-12-20T10:21:22;6.35;;;2.40;;
69779;SDS011;57052;55.602;38.096;2023-12-20T10:23:48;5.10;;;2.70;;
69779;SDS011;57052;55.602;38.096;2023-12-20T10:26:20;6.35;;;2.90;;
69779;SDS011;57052;55.602;38.096;2023-12-20T10:28:53;4.95;;;2.30;;
69779;SDS011;57052;55.602;38.096;2023-12-20T10:31:30;4.45;;;2.30;;
69779;SDS011;57052;55.602;38.096;2023-12-20T10:33:57;3.55;;;2.10;;
69779;SDS011;57052;55.602;38.096;2023-12-20T10:36:28;4.60;;;2.30;;
69779;SDS011;57052;55.602;38.096;2023-12-20T10:38:55;3.60;;;2.00;;
69779;SDS011;57052;55.602;38.096;2023-12-20T10:41:26;3.88;;;2.20;;
69779;SDS011;57052;55.602;38.096;2023-12-20T10:44:00;3.35;;;1.85;;
69779;SDS011;57052;55.602;38.096;2023-12-20T10:46:33;3.45;;;1.83;;
69779;SDS011;57052;55.602;38.096;2023-12-20T10:49:03;4.22;;;2.00;;
69779;SDS011;57052;55.602;38.096;2023-12-20T10:51:30;4.95;;;1.80;;
69779;SDS011;57052;55.602;38.096;2023-12-20T10:53:57;3.60;;;1.85;;
69779;SDS011;57052;55.602;38.096;2023-12-20T10:56:23;3.85;;;2.03;;
69779;SDS011;57052;55.602;38.096;2023-12-20T10:58:50;3.65;;;1.80;;
69779;SDS011;57052;55.602;38.096;2023-12-20T11:01:16;4.28;;;1.73;;
69779;SDS011;57052;55.602;38.096;2023-12-20T11:03:52;3.70;;;1.83;;
69779;SDS011;57052;55.602;38.096;2023-12-20T11:09:06;4.32;;;1.77;;
69779;SDS011;57052;55.602;38.096;2023-12-20T11:14:14;4.13;;;1.98;;
69779;SDS011;57052;55.602;38.096;2023-12-20T11:16:46;4.82;;;2.08;;
69779;SDS011;57052;55.602;38.096;2023-12-20T11:19:11;4.13;;;1.70;;
69779;SDS011;57052;55.602;38.096;2023-12-20T11:21:39;4.80;;;1.98;;
69779;SDS011;57052;55.602;38.096;2023-12-20T11:24:05;3.17;;;1.98;;
69779;SDS011;57052;55.602;38.096;2023-12-20T11:26:31;4.10;;;1.95;;
69779;SDS011;57052;55.602;38.096;2023-12-20T11:29:29;3.80;;;1.90;;
69779;SDS011;57052;55.602;38.096;2023-12-20T11:31:56;3.97;;;2.05;;
69779;SDS011;57052;55.602;38.096;2023-12-20T11:34:22;3.15;;;1.67;;
69779;SDS011;57052;55.602;38.096;2023-12-20T11:36:59;4.55;;;2.10;;
69779;SDS011;57052;55.602;38.096;2023-12-20T11:39:26;4.95;;;2.08;;
69779;SDS011;57052;55.602;38.096;2023-12-20T11:41:54;3.63;;;2.05;;
69779;SDS011;57052;55.602;38.096;2023-12-20T11:44:23;3.70;;;1.70;;
69779;SDS011;57052;55.602;38.096;2023-12-20T11:46:51;3.15;;;1.77;;
69779;SDS011;57052;55.602;38.096;2023-12-20T11:49:17;3.92;;;2.00;;
69779;SDS011;57052;55.602;38.096;2023-12-20T11:51:43;3.83;;;2.00;;
69779;SDS011;57052;55.602;38.096;2023-12-20T11:54:09;3.92;;;2.10;;
69779;SDS011;57052;55.602;38.096;2023-12-20T11:56:36;3.92;;;2.20;;
69779;SDS011;57052;55.602;38.096;2023-12-20T11:59:02;3.83;;;2.00;;
69779;SDS011;57052;55.602;38.096;2023-12-20T12:01:28;3.92;;;2.38;;
69779;SDS011;57052;55.602;38.096;2023-12-20T12:04:04;4.80;;;1.95;;
69779;SDS011;57052;55.602;38.096;2023-12-20T12:06:30;4.30;;;1.90;;
69779;SDS011;57052;55.602;38.096;2023-12-20T12:08:56;4.78;;;2.20;;
69779;SDS011;57052;55.602;38.096;2023-12-20T12:11:22;6.53;;;2.30;;
69779;SDS011;57052;55.602;38.096;2023-12-20T12:13:48;4.45;;;2.42;;
69779;SDS011;57052;55.602;38.096;2023-12-20T12:16:17;5.57;;;1.90;;
69779;SDS011;57052;55.602;38.096;2023-12-20T12:18:58;4.82;;;2.13;;
69779;SDS011;57052;55.602;38.096;2023-12-20T12:21:24;3.45;;;2.05;;
69779;SDS011;57052;55.602;38.096;2023-12-20T12:23:50;3.22;;;1.77;;
69779;SDS011;57052;55.602;38.096;2023-12-20T12:26:16;3.80;;;2.17;;
69779;SDS011;57052;55.602;38.096;2023-12-20T12:28:42;4.60;;;2.50;;
69779;SDS011;57052;55.602;38.096;2023-12-20T12:31:08;5.45;;;2.70;;
69779;SDS011;57052;55.602;38.096;2023-12-20T12:33:38;5.30;;;2.30;;
69779;SDS011;57052;55.602;38.096;2023-12-20T12:36:07;6.22;;;2.70;;
69779;SDS011;57052;55.602;38.096;2023-12-20T12:38:33;4.63;;;2.28;;
69779;SDS011;57052;55.602;38.096;2023-12-20T12:40:59;4.30;;;2.20;;
69779;SDS011;57052;55.602;38.096;2023-12-20T12:43:26;4.60;;;2.17;;
69779;SDS011;57052;55.602;38.096;2023-12-20T12:45:52;4.85;;;2.45;;
69779;SDS011;57052;55.602;38.096;2023-12-20T12:48:19;4.07;;;2.42;;
69779;SDS011;57052;55.602;38.096;2023-12-20T12:50:45;4.68;;;2.58;;
69779;SDS011;57052;55.602;38.096;2023-12-20T12:53:11;4.35;;;2.20;;
69779;SDS011;57052;55.602;38.096;2023-12-20T12:55:37;5.07;;;2.53;;
69779;SDS011;57052;55.602;38.096;2023-12-20T12:58:03;5.00;;;2.50;;
69779;SDS011;57052;55.602;38.096;2023-12-20T13:00:28;4.35;;;2.47;;
69779;SDS011;57052;55.602;38.096;2023-12-20T13:02:54;4.95;;;2.70;;
69779;SDS011;57052;55.602;38.096;2023-12-20T13:05:20;5.75;;;2.60;;
69779;SDS011;57052;55.602;38.096;2023-12-20T13:07:46;4.22;;;2.40;;
69779;SDS011;57052;55.602;38.096;2023-12-20T13:10:13;5.43;;;2.60;;
69779;SDS011;57052;55.602;38.096;2023-12-20T13:12:42;6.03;;;2.45;;
69779;SDS011;57052;55.602;38.096;2023-12-20T13:15:07;5.55;;;2.67;;
69779;SDS011;57052;55.602;38.096;2023-12-20T13:17:34;4.90;;;2.50;;
69779;SDS011;57052;55.602;38.096;2023-12-20T13:20:00;5.18;;;2.60;;
69779;SDS011;57052;55.602;38.096;2023-12-20T13:22:25;4.15;;;2.45;;
69779;SDS011;57052;55.602;38.096;2023-12-20T13:24:51;4.88;;;2.63;;
69779;SDS011;57052;55.602;38.096;2023-12-20T13:27:17;4.57;;;2.63;;
69779;SDS011;57052;55.602;38.096;2023-12-20T13:29:43;4.13;;;2.50;;
69779;SDS011;57052;55.602;38.096;2023-12-20T13:32:08;4.55;;;2.65;;
69779;SDS011;57052;55.602;38.096;2023-12-20T13:34:37;6.78;;;2.90;;
69779;SDS011;57052;55.602;38.096;2023-12-20T13:37:03;5.75;;;2.58;;
69779;SDS011;57052;55.602;38.096;2023-12-20T13:39:29;4.85;;;2.22;;
69779;SDS011;57052;55.602;38.096;2023-12-20T13:41:56;3.28;;;1.95;;
69779;SDS011;57052;55.602;38.096;2023-12-20T13:44:22;4.28;;;2.30;;
69779;SDS011;57052;55.602;38.096;2023-12-20T13:46:48;4.03;;;2.30;;
69779;SDS011;57052;55.602;38.096;2023-12-20T13:49:15;4.40;;;2.10;;
69779;SDS011;57052;55.602;38.096;2023-12-20T13:51:41;4.25;;;2.00;;
69779;SDS011;57052;55.602;38.096;2023-12-20T13:54:07;4.13;;;2.00;;
69779;SDS011;57052;55.602;38.096;2023-12-20T13:56:33;3.58;;;1.90;;
69779;SDS011;57052;55.602;38.096;2023-12-20T13:58:59;4.07;;;2.28;;
69779;SDS011;57052;55.602;38.096;2023-12-20T14:01:25;4.05;;;2.10;;
69779;SDS011;57052;55.602;38.096;2023-12-20T14:03:51;3.15;;;1.80;;
69779;SDS011;57052;55.602;38.096;2023-12-20T14:06:17;3.65;;;1.90;;
69779;SDS011;57052;55.602;38.096;2023-12-20T14:08:43;4.38;;;2.17;;
69779;SDS011;57052;55.602;38.096;2023-12-20T14:11:09;4.00;;;1.95;;
69779;SDS011;57052;55.602;38.096;2023-12-20T14:13:35;4.07;;;2.25;;
69779;SDS011;57052;55.602;38.096;2023-12-20T14:16:01;4.53;;;2.30;;
69779;SDS011;57052;55.602;38.096;2023-12-20T14:18:29;5.00;;;2.30;;
69779;SDS011;57052;55.602;38.096;2023-12-20T14:20:55;3.72;;;2.05;;
69779;SDS011;57052;55.602;38.096;2023-12-20T14:23:21;3.65;;;2.05;;
69779;SDS011;57052;55.602;38.096;2023-12-20T14:25:48;5.60;;;2.13;;
69779;SDS011;57052;55.602;38.096;2023-12-20T14:28:14;3.75;;;2.15;;
69779;SDS011;57052;55.602;38.096;2023-12-20T14:30:40;3.65;;;2.13;;
69779;SDS011;57052;55.602;38.096;2023-12-20T14:33:06;4.75;;;2.10;;
69779;SDS011;57052;55.602;38.096;2023-12-20T14:35:32;3.78;;;2.15;;